Aérodrome :
LOGIN :

S'inscrire | Disclaimer

   EN    FR    IT 

 










Légende :    VFR   VFR Marginal   IFR   IFR Intensif   IFR Très Intensif
Visi : 
Plafond : 
>= 8 km
>= 3000ft
5 à 8 km
1000 à 3000 ft
1500m à 5 km
500 à 1000 ft
800 à 1500m
200 à 500 ft
< 800m
< 200 ft
Symboles :   Orages  Brouillard  Fortes neiges  Fortes précipitations  Vent > 20 kt
SIGMETs :   Divers  Orages  Givrage  Turbulence  Onde Orograph.  Cendres Volcan.







- Altitude de l'aérodrome : 157 ft
- Code IATA : SXF


EDDB - Berlin Schönefeld

DERNIER METAR :
  • 250420Z 18005KT 140V220 9999 SCT043 BKN060 11/10 Q1006 NOSIG

METARs EXPIRÉS :
  • 250350Z 16005KT 130V190 CAVOK 11/10 Q1007 NOSIG
  • 250320Z 16003KT CAVOK 10/10 Q1007 NOSIG
  • 250250Z VRB01KT CAVOK 11/10 Q1008 NOSIG
  • 250220Z 12003KT CAVOK 11/10 Q1008 NOSIG
  • 250150Z 15003KT CAVOK 11/09 Q1009 NOSIG

TAF TAF EDDB
Valide du 25 à 00h jusqu'au 26 à 00h UTC


242300Z 2500/2524 19008KT 9999 SCT030
BECMG 2507/2510 25020G30KT
PROB30
TEMPO 2512/2515 27025G40KT
BECMG 2517/2519 27010KT
Pas de NOTAMs connus pour ce terrain.



MET'MAP, la Météo Aéronautique d'un coup d'oeil ! - Copyright ORBIFLY Décembre 2007 - Disclaimer

ORBIFLY MET'MAP TEAM :

Programmation & Développement : Alexandra Zaïnal
Conception & Développement : Baudouin d'Aumeries
Co-Programmation & Développement : Marc-Olivier Méhu
Soutien technique & logistique : Manuel Goepfert

Contact : metmap@orbifly.com




SOURCES & CREDITS :

   NOAA